sensor_id;sensor_type;location;lat;lon;timestamp;P1;durP1;ratioP1;P2;durP2;ratioP2
32297;SDS011;18782;48.984;8.548;2024-02-26T00:01:34;2.35;;;1.10;;
32297;SDS011;18782;48.984;8.548;2024-02-26T00:04:02;2.67;;;0.98;;
32297;SDS011;18782;48.984;8.548;2024-02-26T00:06:30;2.38;;;1.20;;
32297;SDS011;18782;48.984;8.548;2024-02-26T00:08:58;2.45;;;1.30;;
32297;SDS011;18782;48.984;8.548;2024-02-26T00:11:27;2.17;;;1.02;;
32297;SDS011;18782;48.984;8.548;2024-02-26T00:13:55;2.30;;;1.10;;
32297;SDS011;18782;48.984;8.548;2024-02-26T00:16:22;2.67;;;1.10;;
32297;SDS011;18782;48.984;8.548;2024-02-26T00:18:51;1.90;;;1.10;;
32297;SDS011;18782;48.984;8.548;2024-02-26T00:21:19;1.40;;;0.90;;
32297;SDS011;18782;48.984;8.548;2024-02-26T00:23:47;2.03;;;1.20;;
32297;SDS011;18782;48.984;8.548;2024-02-26T00:26:16;2.85;;;1.40;;
32297;SDS011;18782;48.984;8.548;2024-02-26T00:28:44;5.05;;;1.30;;
32297;SDS011;18782;48.984;8.548;2024-02-26T00:31:11;2.25;;;1.17;;
32297;SDS011;18782;48.984;8.548;2024-02-26T00:33:39;6.78;;;4.82;;
32297;SDS011;18782;48.984;8.548;2024-02-26T00:36:09;6.38;;;4.72;;
32297;SDS011;18782;48.984;8.548;2024-02-26T00:38:37;8.32;;;4.40;;
32297;SDS011;18782;48.984;8.548;2024-02-26T00:41:05;17.55;;;8.15;;
32297;SDS011;18782;48.984;8.548;2024-02-26T00:43:33;21.65;;;9.30;;
32297;SDS011;18782;48.984;8.548;2024-02-26T00:46:01;23.05;;;10.77;;
32297;SDS011;18782;48.984;8.548;2024-02-26T00:48:28;23.80;;;10.55;;
32297;SDS011;18782;48.984;8.548;2024-02-26T00:50:56;5.75;;;2.22;;
32297;SDS011;18782;48.984;8.548;2024-02-26T00:53:25;3.72;;;1.60;;
32297;SDS011;18782;48.984;8.548;2024-02-26T00:55:53;3.42;;;1.67;;
32297;SDS011;18782;48.984;8.548;2024-02-26T00:58:20;6.43;;;3.20;;
32297;SDS011;18782;48.984;8.548;2024-02-26T01:00:48;7.10;;;3.65;;
32297;SDS011;18782;48.984;8.548;2024-02-26T01:03:16;7.65;;;4.78;;
32297;SDS011;18782;48.984;8.548;2024-02-26T01:05:44;9.45;;;4.13;;
32297;SDS011;18782;48.984;8.548;2024-02-26T01:08:12;7.18;;;3.42;;
32297;SDS011;18782;48.984;8.548;2024-02-26T01:10:41;8.13;;;3.22;;
32297;SDS011;18782;48.984;8.548;2024-02-26T01:13:09;5.05;;;2.30;;
32297;SDS011;18782;48.984;8.548;2024-02-26T01:15:37;4.72;;;2.05;;
32297;SDS011;18782;48.984;8.548;2024-02-26T01:18:04;3.70;;;1.65;;
32297;SDS011;18782;48.984;8.548;2024-02-26T01:20:32;4.07;;;1.85;;
32297;SDS011;18782;48.984;8.548;2024-02-26T01:23:00;5.28;;;1.60;;
32297;SDS011;18782;48.984;8.548;2024-02-26T01:25:27;3.75;;;2.40;;
32297;SDS011;18782;48.984;8.548;2024-02-26T01:27:56;3.30;;;2.03;;
32297;SDS011;18782;48.984;8.548;2024-02-26T01:30:24;3.28;;;2.08;;
32297;SDS011;18782;48.984;8.548;2024-02-26T01:32:52;3.08;;;1.85;;
32297;SDS011;18782;48.984;8.548;2024-02-26T01:35:20;4.07;;;2.00;;
32297;SDS011;18782;48.984;8.548;2024-02-26T01:37:48;1.88;;;1.20;;
32297;SDS011;18782;48.984;8.548;2024-02-26T01:40:15;1.95;;;1.10;;
32297;SDS011;18782;48.984;8.548;2024-02-26T01:42:45;2.03;;;1.08;;
32297;SDS011;18782;48.984;8.548;2024-02-26T01:45:16;1.70;;;0.77;;
32297;SDS011;18782;48.984;8.548;2024-02-26T01:47:49;1.73;;;0.95;;
32297;SDS011;18782;48.984;8.548;2024-02-26T01:50:18;2.30;;;0.93;;
32297;SDS011;18782;48.984;8.548;2024-02-26T01:52:49;2.45;;;1.20;;
32297;SDS011;18782;48.984;8.548;2024-02-26T01:55:17;2.15;;;1.00;;
32297;SDS011;18782;48.984;8.548;2024-02-26T01:57:47;2.08;;;0.90;;
32297;SDS011;18782;48.984;8.548;2024-02-26T02:00:18;3.00;;;0.98;;
32297;SDS011;18782;48.984;8.548;2024-02-26T02:02:46;1.45;;;0.73;;
32297;SDS011;18782;48.984;8.548;2024-02-26T02:05:15;3.13;;;1.02;;
32297;SDS011;18782;48.984;8.548;2024-02-26T02:07:44;2.83;;;0.90;;
32297;SDS011;18782;48.984;8.548;2024-02-26T02:10:12;1.65;;;0.70;;
32297;SDS011;18782;48.984;8.548;2024-02-26T02:12:40;1.90;;;1.30;;
32297;SDS011;18782;48.984;8.548;2024-02-26T02:15:08;2.10;;;0.80;;
32297;SDS011;18782;48.984;8.548;2024-02-26T02:17:38;3.03;;;0.80;;
32297;SDS011;18782;48.984;8.548;2024-02-26T02:20:07;1.25;;;0.60;;
32297;SDS011;18782;48.984;8.548;2024-02-26T02:22:37;3.88;;;0.88;;
32297;SDS011;18782;48.984;8.548;2024-02-26T02:25:05;1.30;;;0.40;;
32297;SDS011;18782;48.984;8.548;2024-02-26T02:27:33;1.95;;;0.40;;
32297;SDS011;18782;48.984;8.548;2024-02-26T02:30:01;0.60;;;0.30;;
32297;SDS011;18782;48.984;8.548;2024-02-26T02:32:30;1.10;;;0.60;;
32297;SDS011;18782;48.984;8.548;2024-02-26T02:34:59;0.88;;;0.30;;
32297;SDS011;18782;48.984;8.548;2024-02-26T02:37:26;1.35;;;0.60;;
32297;SDS011;18782;48.984;8.548;2024-02-26T02:39:55;0.88;;;0.30;;
32297;SDS011;18782;48.984;8.548;2024-02-26T02:42:24;0.40;;;0.20;;
32297;SDS011;18782;48.984;8.548;2024-02-26T02:44:51;0.30;;;0.20;;
32297;SDS011;18782;48.984;8.548;2024-02-26T02:47:19;0.90;;;0.32;;
32297;SDS011;18782;48.984;8.548;2024-02-26T02:49:47;0.95;;;0.30;;
32297;SDS011;18782;48.984;8.548;2024-02-26T02:52:14;1.33;;;0.30;;
32297;SDS011;18782;48.984;8.548;2024-02-26T02:54:42;0.50;;;0.30;;
32297;SDS011;18782;48.984;8.548;2024-02-26T02:57:11;1.25;;;0.30;;
32297;SDS011;18782;48.984;8.548;2024-02-26T02:59:39;2.22;;;1.25;;
32297;SDS011;18782;48.984;8.548;2024-02-26T03:02:07;2.58;;;0.40;;
32297;SDS011;18782;48.984;8.548;2024-02-26T03:04:34;2.83;;;0.50;;
32297;SDS011;18782;48.984;8.548;2024-02-26T03:07:02;0.98;;;0.45;;
32297;SDS011;18782;48.984;8.548;2024-02-26T03:09:30;1.90;;;0.60;;
32297;SDS011;18782;48.984;8.548;2024-02-26T03:11:58;1.20;;;0.55;;
32297;SDS011;18782;48.984;8.548;2024-02-26T03:14:28;4.05;;;1.10;;
32297;SDS011;18782;48.984;8.548;2024-02-26T03:16:56;2.05;;;1.05;;
32297;SDS011;18782;48.984;8.548;2024-02-26T03:19:23;1.58;;;0.38;;
32297;SDS011;18782;48.984;8.548;2024-02-26T03:21:52;2.28;;;0.55;;
32297;SDS011;18782;48.984;8.548;2024-02-26T03:24:20;1.20;;;0.45;;
32297;SDS011;18782;48.984;8.548;2024-02-26T03:26:48;1.20;;;0.55;;
32297;SDS011;18782;48.984;8.548;2024-02-26T03:29:17;1.92;;;0.75;;
32297;SDS011;18782;48.984;8.548;2024-02-26T03:31:46;2.15;;;0.50;;
32297;SDS011;18782;48.984;8.548;2024-02-26T03:34:13;1.05;;;0.43;;
32297;SDS011;18782;48.984;8.548;2024-02-26T03:36:41;2.15;;;0.50;;
32297;SDS011;18782;48.984;8.548;2024-02-26T03:39:10;1.10;;;0.40;;
32297;SDS011;18782;48.984;8.548;2024-02-26T03:41:38;0.70;;;0.38;;
32297;SDS011;18782;48.984;8.548;2024-02-26T03:44:05;1.27;;;0.40;;
32297;SDS011;18782;48.984;8.548;2024-02-26T03:46:33;1.83;;;0.60;;
32297;SDS011;18782;48.984;8.548;2024-02-26T03:49:02;1.50;;;0.60;;
32297;SDS011;18782;48.984;8.548;2024-02-26T03:51:30;2.05;;;0.50;;
32297;SDS011;18782;48.984;8.548;2024-02-26T03:53:59;0.68;;;0.40;;
32297;SDS011;18782;48.984;8.548;2024-02-26T03:56:27;1.63;;;0.50;;
32297;SDS011;18782;48.984;8.548;2024-02-26T03:58:54;1.17;;;0.30;;
32297;SDS011;18782;48.984;8.548;2024-02-26T04:01:22;1.35;;;0.52;;
32297;SDS011;18782;48.984;8.548;2024-02-26T04:03:50;0.93;;;0.50;;
32297;SDS011;18782;48.984;8.548;2024-02-26T04:06:20;0.77;;;0.40;;
32297;SDS011;18782;48.984;8.548;2024-02-26T04:08:49;0.75;;;0.30;;
32297;SDS011;18782;48.984;8.548;2024-02-26T04:11:16;2.10;;;0.40;;
32297;SDS011;18782;48.984;8.548;2024-02-26T04:13:45;2.25;;;0.40;;
32297;SDS011;18782;48.984;8.548;2024-02-26T04:16:15;2.50;;;0.50;;
32297;SDS011;18782;48.984;8.548;2024-02-26T04:18:43;0.80;;;0.30;;
32297;SDS011;18782;48.984;8.548;2024-02-26T04:21:11;0.93;;;0.30;;
32297;SDS011;18782;48.984;8.548;2024-02-26T04:23:40;1.48;;;0.40;;
32297;SDS011;18782;48.984;8.548;2024-02-26T04:26:08;0.88;;;0.30;;
32297;SDS011;18782;48.984;8.548;2024-02-26T04:28:35;1.45;;;0.40;;
32297;SDS011;18782;48.984;8.548;2024-02-26T04:31:03;0.88;;;0.40;;
32297;SDS011;18782;48.984;8.548;2024-02-26T04:33:33;1.10;;;0.60;;
32297;SDS011;18782;48.984;8.548;2024-02-26T04:36:02;1.25;;;0.52;;
32297;SDS011;18782;48.984;8.548;2024-02-26T04:38:30;1.27;;;0.40;;
32297;SDS011;18782;48.984;8.548;2024-02-26T04:40:59;2.13;;;0.43;;
32297;SDS011;18782;48.984;8.548;2024-02-26T04:43:27;1.17;;;0.55;;
32297;SDS011;18782;48.984;8.548;2024-02-26T04:45:54;3.70;;;1.27;;
32297;SDS011;18782;48.984;8.548;2024-02-26T04:48:23;4.07;;;1.92;;
32297;SDS011;18782;48.984;8.548;2024-02-26T04:50:51;3.60;;;1.35;;
32297;SDS011;18782;48.984;8.548;2024-02-26T04:53:19;1.52;;;0.77;;
32297;SDS011;18782;48.984;8.548;2024-02-26T04:55:46;3.42;;;0.60;;
32297;SDS011;18782;48.984;8.548;2024-02-26T04:58:15;1.10;;;0.75;;
32297;SDS011;18782;48.984;8.548;2024-02-26T05:00:43;1.50;;;0.60;;
32297;SDS011;18782;48.984;8.548;2024-02-26T05:03:11;1.27;;;0.65;;
32297;SDS011;18782;48.984;8.548;2024-02-26T05:05:39;1.45;;;0.50;;
32297;SDS011;18782;48.984;8.548;2024-02-26T05:08:08;1.42;;;0.52;;
32297;SDS011;18782;48.984;8.548;2024-02-26T05:10:36;1.75;;;0.70;;
32297;SDS011;18782;48.984;8.548;2024-02-26T05:13:07;1.05;;;0.55;;
32297;SDS011;18782;48.984;8.548;2024-02-26T05:18:08;1.50;;;0.63;;
32297;SDS011;18782;48.984;8.548;2024-02-26T05:20:36;1.95;;;0.60;;
32297;SDS011;18782;48.984;8.548;2024-02-26T05:23:04;0.90;;;0.40;;
32297;SDS011;18782;48.984;8.548;2024-02-26T05:25:31;0.82;;;0.30;;
32297;SDS011;18782;48.984;8.548;2024-02-26T05:27:59;1.08;;;0.50;;
32297;SDS011;18782;48.984;8.548;2024-02-26T05:30:27;1.70;;;0.60;;
32297;SDS011;18782;48.984;8.548;2024-02-26T05:32:55;1.40;;;0.60;;
32297;SDS011;18782;48.984;8.548;2024-02-26T05:35:24;1.42;;;0.60;;
32297;SDS011;18782;48.984;8.548;2024-02-26T05:37:52;3.20;;;1.23;;
32297;SDS011;18782;48.984;8.548;2024-02-26T05:40:20;2.10;;;0.90;;
32297;SDS011;18782;48.984;8.548;2024-02-26T05:42:47;2.03;;;0.80;;
32297;SDS011;18782;48.984;8.548;2024-02-26T05:45:15;2.47;;;0.88;;
32297;SDS011;18782;48.984;8.548;2024-02-26T05:47:43;2.45;;;1.20;;
32297;SDS011;18782;48.984;8.548;2024-02-26T05:50:11;1.95;;;1.20;;
32297;SDS011;18782;48.984;8.548;2024-02-26T05:52:42;1.55;;;1.00;;
32297;SDS011;18782;48.984;8.548;2024-02-26T05:55:09;3.10;;;1.40;;
32297;SDS011;18782;48.984;8.548;2024-02-26T05:57:38;2.25;;;1.17;;
32297;SDS011;18782;48.984;8.548;2024-02-26T06:00:06;7.65;;;2.20;;
32297;SDS011;18782;48.984;8.548;2024-02-26T06:02:39;1.85;;;1.17;;
32297;SDS011;18782;48.984;8.548;2024-02-26T06:05:07;2.65;;;0.73;;
32297;SDS011;18782;48.984;8.548;2024-02-26T06:07:35;1.90;;;0.68;;
32297;SDS011;18782;48.984;8.548;2024-02-26T06:10:05;2.15;;;0.70;;
32297;SDS011;18782;48.984;8.548;2024-02-26T06:12:34;1.80;;;0.80;;
32297;SDS011;18782;48.984;8.548;2024-02-26T06:15:02;1.50;;;0.60;;
32297;SDS011;18782;48.984;8.548;2024-02-26T06:17:31;1.30;;;0.45;;
32297;SDS011;18782;48.984;8.548;2024-02-26T06:19:59;1.95;;;0.50;;
32297;SDS011;18782;48.984;8.548;2024-02-26T06:22:27;1.00;;;0.57;;
32297;SDS011;18782;48.984;8.548;2024-02-26T06:24:54;1.10;;;0.63;;
32297;SDS011;18782;48.984;8.548;2024-02-26T06:27:24;0.80;;;0.50;;
32297;SDS011;18782;48.984;8.548;2024-02-26T06:29:51;1.83;;;0.47;;
32297;SDS011;18782;48.984;8.548;2024-02-26T06:32:23;2.35;;;0.60;;
32297;SDS011;18782;48.984;8.548;2024-02-26T06:34:50;1.10;;;0.40;;
32297;SDS011;18782;48.984;8.548;2024-02-26T06:37:18;0.75;;;0.43;;
32297;SDS011;18782;48.984;8.548;2024-02-26T06:39:46;0.80;;;0.50;;
32297;SDS011;18782;48.984;8.548;2024-02-26T06:42:14;1.70;;;0.95;;
32297;SDS011;18782;48.984;8.548;2024-02-26T06:44:43;14.65;;;8.55;;
32297;SDS011;18782;48.984;8.548;2024-02-26T06:47:10;10.20;;;6.43;;
32297;SDS011;18782;48.984;8.548;2024-02-26T06:49:39;8.00;;;3.42;;
32297;SDS011;18782;48.984;8.548;2024-02-26T06:52:07;3.03;;;2.03;;
32297;SDS011;18782;48.984;8.548;2024-02-26T06:54:34;2.90;;;1.80;;
32297;SDS011;18782;48.984;8.548;2024-02-26T06:57:02;4.85;;;1.27;;
32297;SDS011;18782;48.984;8.548;2024-02-26T06:59:30;2.95;;;1.25;;
32297;SDS011;18782;48.984;8.548;2024-02-26T07:01:59;3.53;;;1.13;;
32297;SDS011;18782;48.984;8.548;2024-02-26T07:04:27;1.80;;;1.15;;
32297;SDS011;18782;48.984;8.548;2024-02-26T07:06:55;4.82;;;2.50;;
32297;SDS011;18782;48.984;8.548;2024-02-26T07:09:23;2.53;;;0.80;;
32297;SDS011;18782;48.984;8.548;2024-02-26T07:11:51;1.55;;;1.05;;
32297;SDS011;18782;48.984;8.548;2024-02-26T07:14:19;2.45;;;1.20;;
32297;SDS011;18782;48.984;8.548;2024-02-26T07:16:46;3.35;;;1.83;;
32297;SDS011;18782;48.984;8.548;2024-02-26T07:19:15;2.47;;;0.90;;
32297;SDS011;18782;48.984;8.548;2024-02-26T07:21:43;2.00;;;1.20;;
32297;SDS011;18782;48.984;8.548;2024-02-26T07:24:11;6.40;;;1.98;;
32297;SDS011;18782;48.984;8.548;2024-02-26T07:26:39;1.10;;;0.70;;
32297;SDS011;18782;48.984;8.548;2024-02-26T07:29:06;2.22;;;0.95;;
32297;SDS011;18782;48.984;8.548;2024-02-26T07:31:34;1.20;;;0.70;;
32297;SDS011;18782;48.984;8.548;2024-02-26T07:34:01;1.58;;;0.80;;
32297;SDS011;18782;48.984;8.548;2024-02-26T07:36:31;3.58;;;1.70;;
32297;SDS011;18782;48.984;8.548;2024-02-26T07:38:58;1.77;;;0.80;;
32297;SDS011;18782;48.984;8.548;2024-02-26T07:41:27;2.35;;;0.60;;
32297;SDS011;18782;48.984;8.548;2024-02-26T07:43:55;1.08;;;0.32;;
32297;SDS011;18782;48.984;8.548;2024-02-26T07:46:22;1.58;;;0.52;;
32297;SDS011;18782;48.984;8.548;2024-02-26T07:48:50;1.60;;;0.70;;
32297;SDS011;18782;48.984;8.548;2024-02-26T07:51:18;1.30;;;0.80;;
32297;SDS011;18782;48.984;8.548;2024-02-26T07:53:47;1.48;;;0.50;;
32297;SDS011;18782;48.984;8.548;2024-02-26T07:56:14;1.20;;;0.60;;
32297;SDS011;18782;48.984;8.548;2024-02-26T07:58:42;7.85;;;3.38;;
32297;SDS011;18782;48.984;8.548;2024-02-26T08:01:12;3.08;;;1.95;;
32297;SDS011;18782;48.984;8.548;2024-02-26T08:03:40;1.10;;;0.50;;
32297;SDS011;18782;48.984;8.548;2024-02-26T08:06:08;1.63;;;0.90;;
32297;SDS011;18782;48.984;8.548;2024-02-26T08:08:36;2.00;;;0.77;;
32297;SDS011;18782;48.984;8.548;2024-02-26T08:11:05;0.80;;;0.40;;
32297;SDS011;18782;48.984;8.548;2024-02-26T08:13:33;0.82;;;0.30;;
32297;SDS011;18782;48.984;8.548;2024-02-26T08:16:02;1.05;;;0.55;;
32297;SDS011;18782;48.984;8.548;2024-02-26T08:18:30;0.75;;;0.30;;
32297;SDS011;18782;48.984;8.548;2024-02-26T08:20:57;3.38;;;0.77;;
32297;SDS011;18782;48.984;8.548;2024-02-26T08:23:25;1.70;;;0.80;;
32297;SDS011;18782;48.984;8.548;2024-02-26T08:25:53;1.83;;;0.55;;
32297;SDS011;18782;48.984;8.548;2024-02-26T08:28:22;1.40;;;0.60;;
32297;SDS011;18782;48.984;8.548;2024-02-26T08:30:51;1.13;;;0.60;;
32297;SDS011;18782;48.984;8.548;2024-02-26T08:33:18;1.05;;;0.40;;
32297;SDS011;18782;48.984;8.548;2024-02-26T08:35:46;1.05;;;0.50;;
32297;SDS011;18782;48.984;8.548;2024-02-26T08:38:14;1.00;;;0.35;;
32297;SDS011;18782;48.984;8.548;2024-02-26T08:40:42;0.82;;;0.32;;
32297;SDS011;18782;48.984;8.548;2024-02-26T08:43:10;1.10;;;0.40;;
32297;SDS011;18782;48.984;8.548;2024-02-26T08:45:39;0.85;;;0.50;;
32297;SDS011;18782;48.984;8.548;2024-02-26T08:48:07;1.40;;;0.52;;
32297;SDS011;18782;48.984;8.548;2024-02-26T08:50:34;1.58;;;0.40;;
32297;SDS011;18782;48.984;8.548;2024-02-26T08:53:02;0.82;;;0.32;;
32297;SDS011;18782;48.984;8.548;2024-02-26T08:55:33;1.63;;;0.70;;
32297;SDS011;18782;48.984;8.548;2024-02-26T08:58:00;3.88;;;1.80;;
32297;SDS011;18782;48.984;8.548;2024-02-26T09:00:28;3.10;;;0.90;;
32297;SDS011;18782;48.984;8.548;2024-02-26T09:02:58;2.03;;;0.50;;
32297;SDS011;18782;48.984;8.548;2024-02-26T09:07:58;0.68;;;0.40;;
32297;SDS011;18782;48.984;8.548;2024-02-26T09:10:26;1.30;;;0.60;;
32297;SDS011;18782;48.984;8.548;2024-02-26T09:12:53;3.45;;;0.30;;
32297;SDS011;18782;48.984;8.548;2024-02-26T09:15:21;1.90;;;0.30;;
32297;SDS011;18782;48.984;8.548;2024-02-26T09:17:49;0.55;;;0.22;;
32297;SDS011;18782;48.984;8.548;2024-02-26T09:20:19;0.30;;;0.10;;
32297;SDS011;18782;48.984;8.548;2024-02-26T09:22:48;0.70;;;0.30;;
32297;SDS011;18782;48.984;8.548;2024-02-26T09:25:15;0.52;;;0.30;;
32297;SDS011;18782;48.984;8.548;2024-02-26T09:27:43;2.10;;;0.77;;
32297;SDS011;18782;48.984;8.548;2024-02-26T09:30:12;1.00;;;0.50;;
32297;SDS011;18782;48.984;8.548;2024-02-26T09:32:40;1.42;;;0.57;;
32297;SDS011;18782;48.984;8.548;2024-02-26T09:35:08;1.63;;;0.85;;
32297;SDS011;18782;48.984;8.548;2024-02-26T09:37:37;1.05;;;0.50;;
32297;SDS011;18782;48.984;8.548;2024-02-26T09:40:05;1.35;;;0.75;;
32297;SDS011;18782;48.984;8.548;2024-02-26T09:42:36;0.88;;;0.35;;
32297;SDS011;18782;48.984;8.548;2024-02-26T09:45:07;0.90;;;0.30;;
32297;SDS011;18782;48.984;8.548;2024-02-26T09:47:39;0.70;;;0.30;;
32297;SDS011;18782;48.984;8.548;2024-02-26T09:50:07;0.38;;;0.13;;
32297;SDS011;18782;48.984;8.548;2024-02-26T09:52:40;0.63;;;0.20;;
32297;SDS011;18782;48.984;8.548;2024-02-26T09:55:08;0.52;;;0.30;;
32297;SDS011;18782;48.984;8.548;2024-02-26T09:57:36;0.88;;;0.38;;
32297;SDS011;18782;48.984;8.548;2024-02-26T10:00:05;1.70;;;0.60;;
32297;SDS011;18782;48.984;8.548;2024-02-26T10:02:37;1.40;;;0.60;;
32297;SDS011;18782;48.984;8.548;2024-02-26T10:05:07;1.40;;;0.75;;
32297;SDS011;18782;48.984;8.548;2024-02-26T10:07:41;0.75;;;0.22;;
32297;SDS011;18782;48.984;8.548;2024-02-26T10:10:10;1.02;;;0.30;;
32297;SDS011;18782;48.984;8.548;2024-02-26T10:12:38;0.88;;;0.43;;
32297;SDS011;18782;48.984;8.548;2024-02-26T10:15:06;2.55;;;1.10;;
32297;SDS011;18782;48.984;8.548;2024-02-26T10:17:34;1.40;;;0.88;;
32297;SDS011;18782;48.984;8.548;2024-02-26T10:20:12;0.77;;;0.40;;
32297;SDS011;18782;48.984;8.548;2024-02-26T10:22:44;1.10;;;0.73;;
32297;SDS011;18782;48.984;8.548;2024-02-26T10:25:12;2.42;;;0.60;;
32297;SDS011;18782;48.984;8.548;2024-02-26T10:27:40;1.83;;;0.70;;
32297;SDS011;18782;48.984;8.548;2024-02-26T10:30:18;2.13;;;0.60;;
32297;SDS011;18782;48.984;8.548;2024-02-26T10:32:48;1.73;;;0.80;;
32297;SDS011;18782;48.984;8.548;2024-02-26T10:35:17;3.25;;;0.90;;
32297;SDS011;18782;48.984;8.548;2024-02-26T10:37:48;1.55;;;0.70;;
32297;SDS011;18782;48.984;8.548;2024-02-26T10:40:16;1.25;;;0.57;;
32297;SDS011;18782;48.984;8.548;2024-02-26T10:42:44;3.17;;;0.65;;
32297;SDS011;18782;48.984;8.548;2024-02-26T10:45:14;1.85;;;0.50;;
32297;SDS011;18782;48.984;8.548;2024-02-26T10:47:42;1.58;;;0.90;;
32297;SDS011;18782;48.984;8.548;2024-02-26T10:50:10;2.90;;;0.50;;
32297;SDS011;18782;48.984;8.548;2024-02-26T10:52:40;2.25;;;1.10;;
32297;SDS011;18782;48.984;8.548;2024-02-26T10:55:12;2.35;;;1.00;;
32297;SDS011;18782;48.984;8.548;2024-02-26T10:57:44;3.28;;;1.00;;
32297;SDS011;18782;48.984;8.548;2024-02-26T11:00:14;2.55;;;0.90;;
32297;SDS011;18782;48.984;8.548;2024-02-26T11:02:43;3.05;;;0.70;;
32297;SDS011;18782;48.984;8.548;2024-02-26T11:05:12;1.65;;;0.60;;
32297;SDS011;18782;48.984;8.548;2024-02-26T11:07:41;0.93;;;0.50;;
32297;SDS011;18782;48.984;8.548;2024-02-26T11:10:11;1.40;;;0.60;;
32297;SDS011;18782;48.984;8.548;2024-02-26T11:12:40;2.40;;;1.15;;
32297;SDS011;18782;48.984;8.548;2024-02-26T11:15:09;1.30;;;0.80;;
32297;SDS011;18782;48.984;8.548;2024-02-26T11:17:36;5.10;;;1.70;;
32297;SDS011;18782;48.984;8.548;2024-02-26T11:20:06;2.58;;;0.88;;
32297;SDS011;18782;48.984;8.548;2024-02-26T11:22:39;1.50;;;0.60;;
32297;SDS011;18782;48.984;8.548;2024-02-26T11:25:07;1.30;;;0.52;;
32297;SDS011;18782;48.984;8.548;2024-02-26T11:27:39;2.90;;;0.60;;
32297;SDS011;18782;48.984;8.548;2024-02-26T11:32:39;1.27;;;0.60;;
32297;SDS011;18782;48.984;8.548;2024-02-26T11:35:07;1.05;;;0.50;;
32297;SDS011;18782;48.984;8.548;2024-02-26T11:37:36;5.03;;;0.50;;
32297;SDS011;18782;48.984;8.548;2024-02-26T11:40:09;0.70;;;0.40;;
32297;SDS011;18782;48.984;8.548;2024-02-26T11:42:44;0.98;;;0.40;;
32297;SDS011;18782;48.984;8.548;2024-02-26T11:48:14;1.95;;;0.30;;
32297;SDS011;18782;48.984;8.548;2024-02-26T11:50:46;0.80;;;0.40;;
32297;SDS011;18782;48.984;8.548;2024-02-26T11:53:21;0.80;;;0.28;;
32297;SDS011;18782;48.984;8.548;2024-02-26T11:59:00;2.03;;;0.70;;
32297;SDS011;18782;48.984;8.548;2024-02-26T12:01:44;1.23;;;0.60;;
32297;SDS011;18782;48.984;8.548;2024-02-26T12:04:15;0.82;;;0.40;;
32297;SDS011;18782;48.984;8.548;2024-02-26T12:06:46;0.82;;;0.30;;
32297;SDS011;18782;48.984;8.548;2024-02-26T12:09:31;0.65;;;0.20;;
32297;SDS011;18782;48.984;8.548;2024-02-26T12:12:04;2.08;;;0.30;;
32297;SDS011;18782;48.984;8.548;2024-02-26T12:14:36;1.60;;;0.20;;
32297;SDS011;18782;48.984;8.548;2024-02-26T12:17:05;0.68;;;0.20;;
32297;SDS011;18782;48.984;8.548;2024-02-26T12:19:35;1.13;;;0.25;;
32297;SDS011;18782;48.984;8.548;2024-02-26T12:22:09;1.73;;;0.40;;
32297;SDS011;18782;48.984;8.548;2024-02-26T12:24:40;1.38;;;0.25;;
32297;SDS011;18782;48.984;8.548;2024-02-26T12:27:08;1.17;;;0.40;;
32297;SDS011;18782;48.984;8.548;2024-02-26T12:29:37;1.20;;;0.30;;
32297;SDS011;18782;48.984;8.548;2024-02-26T12:32:05;0.85;;;0.43;;
32297;SDS011;18782;48.984;8.548;2024-02-26T12:34:34;0.57;;;0.20;;
32297;SDS011;18782;48.984;8.548;2024-02-26T12:37:02;0.60;;;0.35;;
32297;SDS011;18782;48.984;8.548;2024-02-26T12:39:30;0.28;;;0.28;;
32297;SDS011;18782;48.984;8.548;2024-02-26T12:41:58;1.55;;;0.30;;
32297;SDS011;18782;48.984;8.548;2024-02-26T12:44:26;0.50;;;0.20;;
32297;SDS011;18782;48.984;8.548;2024-02-26T12:47:00;2.25;;;0.35;;
32297;SDS011;18782;48.984;8.548;2024-02-26T12:49:29;0.68;;;0.30;;
32297;SDS011;18782;48.984;8.548;2024-02-26T12:51:57;0.70;;;0.38;;
32297;SDS011;18782;48.984;8.548;2024-02-26T12:54:28;2.53;;;0.60;;
32297;SDS011;18782;48.984;8.548;2024-02-26T12:56:56;3.40;;;0.77;;
32297;SDS011;18782;48.984;8.548;2024-02-26T12:59:24;1.00;;;0.25;;
32297;SDS011;18782;48.984;8.548;2024-02-26T13:01:55;1.00;;;0.30;;
32297;SDS011;18782;48.984;8.548;2024-02-26T13:04:25;0.50;;;0.30;;
32297;SDS011;18782;48.984;8.548;2024-02-26T13:06:58;1.15;;;0.10;;
32297;SDS011;18782;48.984;8.548;2024-02-26T13:09:31;2.15;;;0.20;;
32297;SDS011;18782;48.984;8.548;2024-02-26T13:12:00;0.50;;;0.20;;
32297;SDS011;18782;48.984;8.548;2024-02-26T13:14:30;0.93;;;0.20;;
32297;SDS011;18782;48.984;8.548;2024-02-26T13:17:00;2.92;;;0.50;;
32297;SDS011;18782;48.984;8.548;2024-02-26T13:19:30;1.67;;;0.30;;
32297;SDS011;18782;48.984;8.548;2024-02-26T13:22:02;0.80;;;0.30;;
32297;SDS011;18782;48.984;8.548;2024-02-26T13:24:30;0.60;;;0.30;;
32297;SDS011;18782;48.984;8.548;2024-02-26T13:26:58;0.88;;;0.35;;
32297;SDS011;18782;48.984;8.548;2024-02-26T13:29:26;2.67;;;0.30;;
32297;SDS011;18782;48.984;8.548;2024-02-26T13:31:54;1.85;;;0.70;;
32297;SDS011;18782;48.984;8.548;2024-02-26T13:34:23;2.15;;;0.50;;
32297;SDS011;18782;48.984;8.548;2024-02-26T13:36:54;1.25;;;0.50;;
32297;SDS011;18782;48.984;8.548;2024-02-26T13:39:22;1.02;;;0.40;;
32297;SDS011;18782;48.984;8.548;2024-02-26T13:41:51;1.00;;;0.40;;
32297;SDS011;18782;48.984;8.548;2024-02-26T13:44:20;0.98;;;0.30;;
32297;SDS011;18782;48.984;8.548;2024-02-26T13:46:48;0.98;;;0.30;;
32297;SDS011;18782;48.984;8.548;2024-02-26T13:49:16;1.88;;;0.40;;
32297;SDS011;18782;48.984;8.548;2024-02-26T13:51:44;0.50;;;0.30;;
32297;SDS011;18782;48.984;8.548;2024-02-26T13:54:13;3.30;;;0.40;;
32297;SDS011;18782;48.984;8.548;2024-02-26T13:56:42;1.10;;;0.40;;
32297;SDS011;18782;48.984;8.548;2024-02-26T13:59:14;1.20;;;0.30;;
32297;SDS011;18782;48.984;8.548;2024-02-26T14:01:41;2.20;;;0.20;;
32297;SDS011;18782;48.984;8.548;2024-02-26T14:04:09;1.00;;;0.30;;
32297;SDS011;18782;48.984;8.548;2024-02-26T14:06:37;1.55;;;0.40;;
32297;SDS011;18782;48.984;8.548;2024-02-26T14:09:06;0.95;;;0.20;;
32297;SDS011;18782;48.984;8.548;2024-02-26T14:11:35;0.28;;;0.17;;
32297;SDS011;18782;48.984;8.548;2024-02-26T14:14:03;0.60;;;0.20;;
32297;SDS011;18782;48.984;8.548;2024-02-26T14:16:31;1.17;;;0.20;;
32297;SDS011;18782;48.984;8.548;2024-02-26T14:18:59;1.08;;;0.15;;
32297;SDS011;18782;48.984;8.548;2024-02-26T14:21:27;1.17;;;0.50;;
32297;SDS011;18782;48.984;8.548;2024-02-26T14:23:55;2.28;;;0.60;;
32297;SDS011;18782;48.984;8.548;2024-02-26T14:26:23;1.02;;;0.47;;
32297;SDS011;18782;48.984;8.548;2024-02-26T14:28:52;0.90;;;0.38;;
32297;SDS011;18782;48.984;8.548;2024-02-26T14:31:21;0.30;;;0.13;;
32297;SDS011;18782;48.984;8.548;2024-02-26T14:33:48;0.57;;;0.30;;
32297;SDS011;18782;48.984;8.548;2024-02-26T14:36:20;1.73;;;0.30;;
32297;SDS011;18782;48.984;8.548;2024-02-26T14:38:48;0.50;;;0.20;;
32297;SDS011;18782;48.984;8.548;2024-02-26T14:41:15;0.30;;;0.20;;
32297;SDS011;18782;48.984;8.548;2024-02-26T14:43:43;0.52;;;0.20;;
32297;SDS011;18782;48.984;8.548;2024-02-26T14:46:14;0.60;;;0.20;;
32297;SDS011;18782;48.984;8.548;2024-02-26T14:48:42;1.50;;;0.30;;
32297;SDS011;18782;48.984;8.548;2024-02-26T14:51:10;0.90;;;0.20;;
32297;SDS011;18782;48.984;8.548;2024-02-26T14:53:37;0.52;;;0.20;;
32297;SDS011;18782;48.984;8.548;2024-02-26T14:56:05;0.65;;;0.20;;
32297;SDS011;18782;48.984;8.548;2024-02-26T14:58:33;0.52;;;0.20;;
32297;SDS011;18782;48.984;8.548;2024-02-26T15:01:01;0.45;;;0.10;;
32297;SDS011;18782;48.984;8.548;2024-02-26T15:03:31;0.63;;;0.10;;
32297;SDS011;18782;48.984;8.548;2024-02-26T15:05:59;1.02;;;0.38;;
32297;SDS011;18782;48.984;8.548;2024-02-26T15:08:26;0.90;;;0.20;;
32297;SDS011;18782;48.984;8.548;2024-02-26T15:10:54;0.28;;;0.17;;